sensor_id;sensor_type;location;lat;lon;timestamp;pressure;altitude;pressure_sealevel;temperature;humidity
73594;BME280;64760;53.404;23.498;2022-11-23T00:01:25;99108.97;;;-3.44;94.97
73594;BME280;64760;53.404;23.498;2022-11-23T00:03:54;99106.13;;;-3.52;94.95
73594;BME280;64760;53.404;23.498;2022-11-23T00:06:22;99095.91;;;-3.55;94.97
73594;BME280;64760;53.404;23.498;2022-11-23T00:08:50;99105.06;;;-3.49;95.23
73594;BME280;64760;53.404;23.498;2022-11-23T00:11:17;99126.38;;;-3.43;96.04
73594;BME280;64760;53.404;23.498;2022-11-23T00:13:44;99120.97;;;-3.41;95.68
73594;BME280;64760;53.404;23.498;2022-11-23T00:16:22;99120.41;;;-3.45;96.14
73594;BME280;64760;53.404;23.498;2022-11-23T00:18:56;99112.28;;;-3.42;96.33
73594;BME280;64760;53.404;23.498;2022-11-23T00:21:24;99121.78;;;-3.29;96.31
73594;BME280;64760;53.404;23.498;2022-11-23T00:23:51;99099.78;;;-3.38;96.29
73594;BME280;64760;53.404;23.498;2022-11-23T00:26:18;99123.44;;;-3.28;95.78
73594;BME280;64760;53.404;23.498;2022-11-23T00:28:46;99108.41;;;-3.47;96.11
73594;BME280;64760;53.404;23.498;2022-11-23T00:31:15;99114.47;;;-3.47;95.78
73594;BME280;64760;53.404;23.498;2022-11-23T00:33:44;99099.97;;;-3.51;95.70
73594;BME280;64760;53.404;23.498;2022-11-23T00:36:14;99122.41;;;-3.37;95.27
73594;BME280;64760;53.404;23.498;2022-11-23T00:38:42;99130.84;;;-3.34;95.21
73594;BME280;64760;53.404;23.498;2022-11-23T00:41:14;99115.06;;;-3.43;95.24
73594;BME280;64760;53.404;23.498;2022-11-23T00:43:42;99083.50;;;-3.53;94.84
73594;BME280;64760;53.404;23.498;2022-11-23T00:46:16;99119.16;;;-3.29;94.57
73594;BME280;64760;53.404;23.498;2022-11-23T00:48:45;99107.19;;;-3.43;94.60
73594;BME280;64760;53.404;23.498;2022-11-23T00:51:17;99108.03;;;-3.43;95.13
73594;BME280;64760;53.404;23.498;2022-11-23T00:53:44;99104.78;;;-3.46;94.91
73594;BME280;64760;53.404;23.498;2022-11-23T00:59:41;99129.72;;;-3.52;95.00
73594;BME280;64760;53.404;23.498;2022-11-23T01:02:07;99120.19;;;-3.53;94.85
73594;BME280;64760;53.404;23.498;2022-11-23T01:04:33;99119.72;;;-3.47;94.79
73594;BME280;64760;53.404;23.498;2022-11-23T01:07:00;99113.53;;;-3.57;95.13
73594;BME280;64760;53.404;23.498;2022-11-23T01:09:26;99117.09;;;-3.47;95.16
73594;BME280;64760;53.404;23.498;2022-11-23T01:11:53;99103.63;;;-3.53;95.17
73594;BME280;64760;53.404;23.498;2022-11-23T01:14:23;99099.47;;;-3.56;95.45
73594;BME280;64760;53.404;23.498;2022-11-23T01:16:50;99104.69;;;-3.45;95.48
73594;BME280;64760;53.404;23.498;2022-11-23T01:19:17;99120.00;;;-3.29;95.33
73594;BME280;64760;53.404;23.498;2022-11-23T01:21:48;99110.38;;;-3.40;95.53
73594;BME280;64760;53.404;23.498;2022-11-23T01:24:20;99118.00;;;-3.37;95.31
73594;BME280;64760;53.404;23.498;2022-11-23T01:26:51;99111.09;;;-3.38;95.47
73594;BME280;64760;53.404;23.498;2022-11-23T01:29:19;99094.22;;;-3.45;94.90
73594;BME280;64760;53.404;23.498;2022-11-23T01:31:47;99115.47;;;-3.38;95.12
73594;BME280;64760;53.404;23.498;2022-11-23T01:34:14;99088.88;;;-3.54;95.03
73594;BME280;64760;53.404;23.498;2022-11-23T01:36:41;99093.75;;;-3.50;95.07
73594;BME280;64760;53.404;23.498;2022-11-23T01:39:09;99104.69;;;-3.45;95.28
73594;BME280;64760;53.404;23.498;2022-11-23T01:41:38;99083.25;;;-3.39;95.14
73594;BME280;64760;53.404;23.498;2022-11-23T01:46:54;99075.66;;;-3.53;94.92
73594;BME280;64760;53.404;23.498;2022-11-23T01:49:21;99097.34;;;-3.51;94.96
73594;BME280;64760;53.404;23.498;2022-11-23T01:51:50;99079.75;;;-3.60;95.20
73594;BME280;64760;53.404;23.498;2022-11-23T01:54:31;99087.66;;;-3.50;95.41
73594;BME280;64760;53.404;23.498;2022-11-23T01:57:07;99097.44;;;-3.52;95.12
73594;BME280;64760;53.404;23.498;2022-11-23T01:59:35;99080.22;;;-3.66;95.41
73594;BME280;64760;53.404;23.498;2022-11-23T02:02:02;99088.06;;;-3.66;95.22
73594;BME280;64760;53.404;23.498;2022-11-23T02:04:32;99096.13;;;-3.58;95.41
73594;BME280;64760;53.404;23.498;2022-11-23T02:07:01;99098.28;;;-3.52;95.46
73594;BME280;64760;53.404;23.498;2022-11-23T02:09:30;99104.94;;;-3.48;95.48
73594;BME280;64760;53.404;23.498;2022-11-23T02:11:57;99100.66;;;-3.49;95.48
73594;BME280;64760;53.404;23.498;2022-11-23T02:14:24;99107.66;;;-3.49;95.35
73594;BME280;64760;53.404;23.498;2022-11-23T02:16:57;99098.03;;;-3.49;95.18
73594;BME280;64760;53.404;23.498;2022-11-23T02:22:04;99101.00;;;-3.53;94.96
73594;BME280;64760;53.404;23.498;2022-11-23T02:24:35;99105.53;;;-3.44;95.13
73594;BME280;64760;53.404;23.498;2022-11-23T02:27:07;99100.31;;;-3.55;94.62
73594;BME280;64760;53.404;23.498;2022-11-23T02:29:34;99105.91;;;-3.60;94.57
73594;BME280;64760;53.404;23.498;2022-11-23T02:32:00;99108.22;;;-3.66;94.68
73594;BME280;64760;53.404;23.498;2022-11-23T02:34:27;99105.19;;;-3.62;95.02
73594;BME280;64760;53.404;23.498;2022-11-23T02:36:55;99116.19;;;-3.68;94.72
73594;BME280;64760;53.404;23.498;2022-11-23T02:41:58;99095.25;;;-3.79;94.82
73594;BME280;64760;53.404;23.498;2022-11-23T02:46:57;99095.84;;;-3.75;94.97
73594;BME280;64760;53.404;23.498;2022-11-23T02:49:24;99090.59;;;-3.75;95.29
73594;BME280;64760;53.404;23.498;2022-11-23T02:51:51;99105.81;;;-3.69;95.24
73594;BME280;64760;53.404;23.498;2022-11-23T02:54:17;99107.59;;;-3.70;95.43
73594;BME280;64760;53.404;23.498;2022-11-23T02:56:43;99088.56;;;-3.72;95.25
73594;BME280;64760;53.404;23.498;2022-11-23T02:59:09;99080.00;;;-3.74;94.84
73594;BME280;64760;53.404;23.498;2022-11-23T03:01:36;99105.72;;;-3.68;94.84
73594;BME280;64760;53.404;23.498;2022-11-23T03:04:06;99093.09;;;-3.74;95.23
73594;BME280;64760;53.404;23.498;2022-11-23T03:06:32;99092.88;;;-3.71;94.66
73594;BME280;64760;53.404;23.498;2022-11-23T03:08:58;99078.56;;;-3.78;95.16
73594;BME280;64760;53.404;23.498;2022-11-23T03:11:25;99094.50;;;-3.59;95.01
73594;BME280;64760;53.404;23.498;2022-11-23T03:13:51;99075.44;;;-3.61;94.75
73594;BME280;64760;53.404;23.498;2022-11-23T03:16:19;99082.34;;;-3.60;95.01
73594;BME280;64760;53.404;23.498;2022-11-23T03:18:47;99097.75;;;-3.66;95.02
73594;BME280;64760;53.404;23.498;2022-11-23T03:21:13;99095.09;;;-3.55;95.42
73594;BME280;64760;53.404;23.498;2022-11-23T03:23:39;99095.78;;;-3.53;95.15
73594;BME280;64760;53.404;23.498;2022-11-23T03:26:08;99083.31;;;-3.61;95.13
73594;BME280;64760;53.404;23.498;2022-11-23T03:28:40;99089.75;;;-3.65;95.24
73594;BME280;64760;53.404;23.498;2022-11-23T03:31:07;99094.25;;;-3.56;95.06
73594;BME280;64760;53.404;23.498;2022-11-23T03:33:34;99083.34;;;-3.72;95.13
73594;BME280;64760;53.404;23.498;2022-11-23T03:36:00;99101.88;;;-3.64;95.55
73594;BME280;64760;53.404;23.498;2022-11-23T03:38:33;99091.19;;;-3.72;94.98
73594;BME280;64760;53.404;23.498;2022-11-23T03:41:01;99110.44;;;-3.62;95.26
73594;BME280;64760;53.404;23.498;2022-11-23T03:43:48;99093.94;;;-3.85;94.90
73594;BME280;64760;53.404;23.498;2022-11-23T03:46:15;99093.38;;;-3.88;95.46
73594;BME280;64760;53.404;23.498;2022-11-23T03:48:41;99081.72;;;-3.95;95.46
73594;BME280;64760;53.404;23.498;2022-11-23T03:51:08;99103.81;;;-3.77;95.49
73594;BME280;64760;53.404;23.498;2022-11-23T03:53:35;99085.25;;;-3.85;95.95
73594;BME280;64760;53.404;23.498;2022-11-23T03:56:05;99086.56;;;-3.80;95.94
73594;BME280;64760;53.404;23.498;2022-11-23T04:02:24;99101.88;;;-3.64;95.89
73594;BME280;64760;53.404;23.498;2022-11-23T04:05:02;99086.28;;;-3.65;96.05
73594;BME280;64760;53.404;23.498;2022-11-23T04:08:05;99098.91;;;-3.59;96.25
73594;BME280;64760;53.404;23.498;2022-11-23T04:10:32;99101.63;;;-3.61;96.30
73594;BME280;64760;53.404;23.498;2022-11-23T04:13:04;99094.94;;;-3.54;95.92
73594;BME280;64760;53.404;23.498;2022-11-23T04:15:31;99095.44;;;-3.60;95.54
73594;BME280;64760;53.404;23.498;2022-11-23T04:17:57;99089.03;;;-3.67;95.59
73594;BME280;64760;53.404;23.498;2022-11-23T04:20:24;99074.75;;;-3.74;95.88
73594;BME280;64760;53.404;23.498;2022-11-23T04:22:50;99087.97;;;-3.64;95.87
73594;BME280;64760;53.404;23.498;2022-11-23T04:25:17;99096.41;;;-3.61;96.11
73594;BME280;64760;53.404;23.498;2022-11-23T04:27:45;99097.34;;;-3.62;96.05
73594;BME280;64760;53.404;23.498;2022-11-23T04:30:13;99094.81;;;-3.52;96.15
73594;BME280;64760;53.404;23.498;2022-11-23T04:32:39;99101.00;;;-3.53;96.13
73594;BME280;64760;53.404;23.498;2022-11-23T04:35:06;99082.34;;;-3.60;95.92
73594;BME280;64760;53.404;23.498;2022-11-23T04:37:34;99091.25;;;-3.51;95.60
73594;BME280;64760;53.404;23.498;2022-11-23T04:40:01;99089.69;;;-3.54;95.77
73594;BME280;64760;53.404;23.498;2022-11-23T04:42:40;99080.00;;;-3.63;95.45
73594;BME280;64760;53.404;23.498;2022-11-23T04:45:07;99074.75;;;-3.74;95.61
73594;BME280;64760;53.404;23.498;2022-11-23T04:47:33;99070.00;;;-3.69;95.84
73594;BME280;64760;53.404;23.498;2022-11-23T04:50:04;99074.03;;;-3.65;95.78
73594;BME280;64760;53.404;23.498;2022-11-23T04:52:31;99082.34;;;-3.60;95.94
73594;BME280;64760;53.404;23.498;2022-11-23T04:54:58;99076.38;;;-3.62;95.97
73594;BME280;64760;53.404;23.498;2022-11-23T04:57:24;99085.81;;;-3.59;95.81
73594;BME280;64760;53.404;23.498;2022-11-23T04:59:52;99106.13;;;-3.52;95.61
73594;BME280;64760;53.404;23.498;2022-11-23T05:02:18;99088.53;;;-3.61;96.04
73594;BME280;64760;53.404;23.498;2022-11-23T05:04:52;99098.97;;;-3.50;95.52
73594;BME280;64760;53.404;23.498;2022-11-23T05:07:20;99112.53;;;-3.45;95.76
73594;BME280;64760;53.404;23.498;2022-11-23T05:09:53;99118.63;;;-3.44;95.97
73594;BME280;64760;53.404;23.498;2022-11-23T05:12:21;99113.28;;;-3.54;95.47
73594;BME280;64760;53.404;23.498;2022-11-23T05:14:48;99120.50;;;-3.46;95.48
73594;BME280;64760;53.404;23.498;2022-11-23T05:17:19;99120.91;;;-3.51;95.54
73594;BME280;64760;53.404;23.498;2022-11-23T05:19:47;99114.72;;;-3.61;95.30
73594;BME280;64760;53.404;23.498;2022-11-23T05:22:14;99099.63;;;-3.68;95.33
73594;BME280;64760;53.404;23.498;2022-11-23T05:24:42;99109.72;;;-3.53;95.36
73594;BME280;64760;53.404;23.498;2022-11-23T05:27:13;99093.09;;;-3.63;95.04
73594;BME280;64760;53.404;23.498;2022-11-23T05:29:40;99092.00;;;-3.60;95.06
73594;BME280;64760;53.404;23.498;2022-11-23T05:32:06;99100.38;;;-3.46;95.18
73594;BME280;64760;53.404;23.498;2022-11-23T05:34:33;99101.97;;;-3.54;94.75
73594;BME280;64760;53.404;23.498;2022-11-23T05:37:01;99095.44;;;-3.60;94.54
73594;BME280;64760;53.404;23.498;2022-11-23T05:39:28;99103.16;;;-3.47;95.10
73594;BME280;64760;53.404;23.498;2022-11-23T05:41:54;99100.03;;;-3.41;95.25
73594;BME280;64760;53.404;23.498;2022-11-23T05:44:31;99075.44;;;-3.61;95.10
73594;BME280;64760;53.404;23.498;2022-11-23T05:46:58;99079.25;;;-3.65;95.13
73594;BME280;64760;53.404;23.498;2022-11-23T05:49:27;99093.16;;;-3.53;95.38
73594;BME280;64760;53.404;23.498;2022-11-23T05:51:53;99092.31;;;-3.43;95.04
73594;BME280;64760;53.404;23.498;2022-11-23T05:54:20;99078.84;;;-3.49;95.15
73594;BME280;64760;53.404;23.498;2022-11-23T05:56:58;99107.03;;;-3.42;94.71
73594;BME280;64760;53.404;23.498;2022-11-23T05:59:34;99088.78;;;-3.64;94.61
73594;BME280;64760;53.404;23.498;2022-11-23T06:02:01;99104.72;;;-3.56;94.93
73594;BME280;64760;53.404;23.498;2022-11-23T06:04:31;99111.38;;;-3.52;94.95
73594;BME280;64760;53.404;23.498;2022-11-23T06:06:58;99105.19;;;-3.62;95.13
73594;BME280;64760;53.404;23.498;2022-11-23T06:09:28;99104.75;;;-3.67;94.88
73594;BME280;64760;53.404;23.498;2022-11-23T06:11:59;99104.06;;;-3.80;95.10
73594;BME280;64760;53.404;23.498;2022-11-23T06:14:25;99120.31;;;-3.65;95.25
73594;BME280;64760;53.404;23.498;2022-11-23T06:16:52;99098.19;;;-3.61;94.66
73594;BME280;64760;53.404;23.498;2022-11-23T06:19:33;99122.31;;;-3.47;94.67
73594;BME280;64760;53.404;23.498;2022-11-23T06:22:00;99125.63;;;-3.45;93.86
73594;BME280;64760;53.404;23.498;2022-11-23T06:24:30;99130.66;;;-3.53;93.69
73594;BME280;64760;53.404;23.498;2022-11-23T06:27:19;99122.84;;;-3.64;93.87
73594;BME280;64760;53.404;23.498;2022-11-23T06:29:47;99115.34;;;-3.68;94.04
73594;BME280;64760;53.404;23.498;2022-11-23T06:32:14;99108.22;;;-3.66;94.34
73594;BME280;64760;53.404;23.498;2022-11-23T06:34:41;99125.66;;;-3.56;94.79
73594;BME280;64760;53.404;23.498;2022-11-23T06:37:08;99131.28;;;-3.60;94.82
73594;BME280;64760;53.404;23.498;2022-11-23T06:39:35;99137.44;;;-3.50;95.15
73594;BME280;64760;53.404;23.498;2022-11-23T06:42:02;99130.28;;;-3.48;94.54
73594;BME280;64760;53.404;23.498;2022-11-23T06:44:29;99126.25;;;-3.52;94.57
73594;BME280;64760;53.404;23.498;2022-11-23T06:46:55;99120.66;;;-3.48;94.92
73594;BME280;64760;53.404;23.498;2022-11-23T06:49:21;99113.75;;;-3.49;94.73
73594;BME280;64760;53.404;23.498;2022-11-23T06:52:05;99099.84;;;-3.60;94.68
73594;BME280;64760;53.404;23.498;2022-11-23T06:54:32;99115.53;;;-3.49;94.80
73594;BME280;64760;53.404;23.498;2022-11-23T07:00:38;99107.41;;;-3.46;95.36
73594;BME280;64760;53.404;23.498;2022-11-23T07:03:05;99109.22;;;-3.47;95.50
73594;BME280;64760;53.404;23.498;2022-11-23T07:05:39;99099.44;;;-3.45;95.44
73594;BME280;64760;53.404;23.498;2022-11-23T07:08:06;99122.59;;;-3.29;95.77
73594;BME280;64760;53.404;23.498;2022-11-23T07:10:32;99127.00;;;-3.29;95.61
73594;BME280;64760;53.404;23.498;2022-11-23T07:13:07;99139.69;;;-3.35;95.17
73594;BME280;64760;53.404;23.498;2022-11-23T07:15:36;99133.81;;;-3.38;95.02
73594;BME280;64760;53.404;23.498;2022-11-23T07:18:03;99120.06;;;-3.51;94.99
73594;BME280;64760;53.404;23.498;2022-11-23T07:20:30;99136.94;;;-3.44;94.90
73594;BME280;64760;53.404;23.498;2022-11-23T07:23:09;99132.34;;;-3.52;94.59
73594;BME280;64760;53.404;23.498;2022-11-23T07:25:38;99145.06;;;-3.47;94.80
73594;BME280;64760;53.404;23.498;2022-11-23T07:28:06;99136.59;;;-3.40;94.50
73594;BME280;64760;53.404;23.498;2022-11-23T07:30:34;99124.84;;;-3.56;94.14
73594;BME280;64760;53.404;23.498;2022-11-23T07:33:04;99149.09;;;-3.43;94.60
73594;BME280;64760;53.404;23.498;2022-11-23T07:35:31;99153.25;;;-3.41;94.25
73594;BME280;64760;53.404;23.498;2022-11-23T07:37:58;99139.47;;;-3.43;94.20
73594;BME280;64760;53.404;23.498;2022-11-23T07:40:25;99166.09;;;-3.26;94.68
73594;BME280;64760;53.404;23.498;2022-11-23T07:43:00;99159.75;;;-3.24;94.59
73594;BME280;64760;53.404;23.498;2022-11-23T07:45:28;99166.63;;;-3.12;94.16
73594;BME280;64760;53.404;23.498;2022-11-23T07:48:00;99159.97;;;-3.16;94.20
73594;BME280;64760;53.404;23.498;2022-11-23T07:50:27;99172.34;;;-3.07;94.09
73594;BME280;64760;53.404;23.498;2022-11-23T07:52:55;99129.25;;;-3.25;93.68
73594;BME280;64760;53.404;23.498;2022-11-23T07:55:22;99149.88;;;-3.20;93.41
73594;BME280;64760;53.404;23.498;2022-11-23T07:57:52;99159.97;;;-3.16;93.34
73594;BME280;64760;53.404;23.498;2022-11-23T08:00:20;99159.25;;;-3.07;93.82
73594;BME280;64760;53.404;23.498;2022-11-23T08:02:47;99158.88;;;-3.13;93.68
73594;BME280;64760;53.404;23.498;2022-11-23T08:05:14;99149.50;;;-3.16;93.72
73594;BME280;64760;53.404;23.498;2022-11-23T08:07:44;99149.13;;;-3.11;94.13
73594;BME280;64760;53.404;23.498;2022-11-23T08:10:11;99152.91;;;-3.04;94.17
73594;BME280;64760;53.404;23.498;2022-11-23T08:12:38;99177.59;;;-2.86;93.89
73594;BME280;64760;53.404;23.498;2022-11-23T08:15:05;99186.75;;;-2.80;93.33
73594;BME280;64760;53.404;23.498;2022-11-23T08:17:32;99158.09;;;-2.93;93.02
73594;BME280;64760;53.404;23.498;2022-11-23T08:19:58;99174.78;;;-2.94;92.55
73594;BME280;64760;53.404;23.498;2022-11-23T08:22:25;99135.09;;;-3.21;92.73
73594;BME280;64760;53.404;23.498;2022-11-23T08:24:52;99166.09;;;-2.95;93.35
73594;BME280;64760;53.404;23.498;2022-11-23T08:27:19;99174.97;;;-2.86;93.09
73594;BME280;64760;53.404;23.498;2022-11-23T08:29:46;99165.31;;;-2.86;92.73
73594;BME280;64760;53.404;23.498;2022-11-23T08:32:12;99173.97;;;-2.74;92.64
73594;BME280;64760;53.404;23.498;2022-11-23T08:34:41;99165.78;;;-2.80;91.82
73594;BME280;64760;53.404;23.498;2022-11-23T08:37:07;99188.06;;;-2.75;92.31
73594;BME280;64760;53.404;23.498;2022-11-23T08:39:34;99163.06;;;-2.79;91.84
73594;BME280;64760;53.404;23.498;2022-11-23T08:42:00;99163.16;;;-2.80;91.65
73594;BME280;64760;53.404;23.498;2022-11-23T08:44:27;99165.59;;;-2.89;91.82
73594;BME280;64760;53.404;23.498;2022-11-23T08:46:53;99171.66;;;-2.88;92.16
73594;BME280;64760;53.404;23.498;2022-11-23T08:49:20;99183.25;;;-2.70;92.41
73594;BME280;64760;53.404;23.498;2022-11-23T08:51:46;99178.53;;;-2.76;92.63
73594;BME280;64760;53.404;23.498;2022-11-23T08:54:13;99180.63;;;-2.70;92.96
73594;BME280;64760;53.404;23.498;2022-11-23T08:56:39;99191.31;;;-2.62;92.51
73594;BME280;64760;53.404;23.498;2022-11-23T08:59:07;99186.91;;;-2.61;92.43
73594;BME280;64760;53.404;23.498;2022-11-23T09:01:33;99193.50;;;-2.46;91.87
73594;BME280;64760;53.404;23.498;2022-11-23T09:04:00;99168.16;;;-2.57;91.56
73594;BME280;64760;53.404;23.498;2022-11-23T09:06:32;99181.97;;;-2.55;91.25
73594;BME280;64760;53.404;23.498;2022-11-23T09:08:58;99187.88;;;-2.42;91.12
73594;BME280;64760;53.404;23.498;2022-11-23T09:11:25;99187.56;;;-2.27;90.39
73594;BME280;64760;53.404;23.498;2022-11-23T09:13:52;99180.44;;;-2.37;90.41
73594;BME280;64760;53.404;23.498;2022-11-23T09:16:19;99152.13;;;-2.63;90.22
73594;BME280;64760;53.404;23.498;2022-11-23T09:18:46;99184.38;;;-2.52;90.45
73594;BME280;64760;53.404;23.498;2022-11-23T09:21:14;99202.22;;;-2.46;91.26
73594;BME280;64760;53.404;23.498;2022-11-23T09:23:40;99171.75;;;-2.58;90.99
73594;BME280;64760;53.404;23.498;2022-11-23T09:26:06;99188.41;;;-2.48;90.79
73594;BME280;64760;53.404;23.498;2022-11-23T09:28:34;99180.75;;;-2.51;90.27
73594;BME280;64760;53.404;23.498;2022-11-23T09:31:49;99166.88;;;-2.62;90.83
73594;BME280;64760;53.404;23.498;2022-11-23T09:34:15;99192.06;;;-2.39;90.51
73594;BME280;64760;53.404;23.498;2022-11-23T09:36:41;99182.38;;;-2.39;90.44
73594;BME280;64760;53.404;23.498;2022-11-23T09:39:08;99177.19;;;-2.50;90.17
73594;BME280;64760;53.404;23.498;2022-11-23T09:44:30;99177.34;;;-2.51;90.37
73594;BME280;64760;53.404;23.498;2022-11-23T09:52:18;99177.19;;;-2.29;90.69
73594;BME280;64760;53.404;23.498;2022-11-23T09:54:49;99163.50;;;-2.32;91.14
73594;BME280;64760;53.404;23.498;2022-11-23T09:57:22;99155.88;;;-2.35;91.01
73594;BME280;64760;53.404;23.498;2022-11-23T10:00:01;99168.78;;;-2.23;90.66
73594;BME280;64760;53.404;23.498;2022-11-23T10:02:34;99170.63;;;-2.14;89.92
73594;BME280;64760;53.404;23.498;2022-11-23T10:05:04;99160.91;;;-2.23;89.80
73594;BME280;64760;53.404;23.498;2022-11-23T10:13:51;99170.38;;;-2.11;90.71
73594;BME280;64760;53.404;23.498;2022-11-23T10:16:37;99160.69;;;-2.10;90.23
73594;BME280;64760;53.404;23.498;2022-11-23T10:21:54;99171.56;;;-1.94;88.88
73594;BME280;64760;53.404;23.498;2022-11-23T10:24:32;99167.53;;;-1.98;89.24
73594;BME280;64760;53.404;23.498;2022-11-23T10:27:01;99159.75;;;-2.09;89.18
73594;BME280;64760;53.404;23.498;2022-11-23T10:29:34;99183.56;;;-2.01;89.83
73594;BME280;64760;53.404;23.498;2022-11-23T10:32:24;99180.66;;;-1.98;90.04
73594;BME280;64760;53.404;23.498;2022-11-23T10:34:59;99183.72;;;-1.93;89.61
73594;BME280;64760;53.404;23.498;2022-11-23T10:37:27;99183.47;;;-1.90;89.58
73594;BME280;64760;53.404;23.498;2022-11-23T10:39:53;99179.44;;;-1.94;90.14
73594;BME280;64760;53.404;23.498;2022-11-23T10:42:27;99156.72;;;-2.05;90.03
73594;BME280;64760;53.404;23.498;2022-11-23T10:44:57;99167.41;;;-1.97;90.15
73594;BME280;64760;53.404;23.498;2022-11-23T10:47:37;99179.03;;;-1.90;90.02
73594;BME280;64760;53.404;23.498;2022-11-23T10:58:32;99173.53;;;-1.86;90.40
73594;BME280;64760;53.404;23.498;2022-11-23T11:01:11;99156.84;;;-2.06;90.36
73594;BME280;64760;53.404;23.498;2022-11-23T11:03:39;99154.16;;;-1.95;90.64
73594;BME280;64760;53.404;23.498;2022-11-23T11:06:05;99122.03;;;-2.08;90.13
73594;BME280;64760;53.404;23.498;2022-11-23T11:08:34;99141.28;;;-1.98;90.22
73594;BME280;64760;53.404;23.498;2022-11-23T11:16:03;99130.19;;;-1.71;87.95
73594;BME280;64760;53.404;23.498;2022-11-23T11:18:35;99135.13;;;-1.78;88.28
73594;BME280;64760;53.404;23.498;2022-11-23T11:21:16;99135.91;;;-1.87;89.24
73594;BME280;64760;53.404;23.498;2022-11-23T11:23:53;99128.47;;;-1.82;88.73
73594;BME280;64760;53.404;23.498;2022-11-23T11:26:25;99125.41;;;-1.87;89.42
73594;BME280;64760;53.404;23.498;2022-11-23T11:28:53;99099.81;;;-2.04;89.66
73594;BME280;64760;53.404;23.498;2022-11-23T11:31:42;99119.09;;;-1.84;89.57
73594;BME280;64760;53.404;23.498;2022-11-23T11:34:29;99093.22;;;-1.89;89.03
73594;BME280;64760;53.404;23.498;2022-11-23T11:39:37;99108.75;;;-1.76;89.43
73594;BME280;64760;53.404;23.498;2022-11-23T11:42:15;99093.16;;;-1.99;89.26
73594;BME280;64760;53.404;23.498;2022-11-23T11:44:45;99123.44;;;-1.95;89.21
73594;BME280;64760;53.404;23.498;2022-11-23T11:47:58;99133.47;;;-1.79;88.75
73594;BME280;64760;53.404;23.498;2022-11-23T11:50:37;99125.00;;;-1.92;88.90
73594;BME280;64760;53.404;23.498;2022-11-23T11:53:10;99135.22;;;-1.89;88.71
73594;BME280;64760;53.404;23.498;2022-11-23T11:55:54;99138.34;;;-2.05;89.37
73594;BME280;64760;53.404;23.498;2022-11-23T11:58:24;99129.63;;;-2.05;90.12
73594;BME280;64760;53.404;23.498;2022-11-23T12:01:06;99097.53;;;-2.18;90.02
73594;BME280;64760;53.404;23.498;2022-11-23T12:03:40;99112.09;;;-2.05;90.30
73594;BME280;64760;53.404;23.498;2022-11-23T12:06:28;99112.50;;;-2.09;90.15
73594;BME280;64760;53.404;23.498;2022-11-23T12:09:06;99095.13;;;-2.31;90.14
73594;BME280;64760;53.404;23.498;2022-11-23T12:11:37;99102.88;;;-2.29;90.82
73594;BME280;64760;53.404;23.498;2022-11-23T12:14:04;99114.75;;;-2.25;91.22
73594;BME280;64760;53.404;23.498;2022-11-23T12:16:55;99112.13;;;-2.25;91.00
73594;BME280;64760;53.404;23.498;2022-11-23T12:25:12;99125.66;;;-2.30;91.27
73594;BME280;64760;53.404;23.498;2022-11-23T12:30:28;99107.91;;;-2.17;91.16
73594;BME280;64760;53.404;23.498;2022-11-23T12:38:55;99120.47;;;-2.20;90.80
73594;BME280;64760;53.404;23.498;2022-11-23T12:41:37;99117.94;;;-2.22;91.01
73594;BME280;64760;53.404;23.498;2022-11-23T12:49:54;99092.63;;;-2.32;91.51
73594;BME280;64760;53.404;23.498;2022-11-23T12:53:42;99087.56;;;-2.24;91.35
73594;BME280;64760;53.404;23.498;2022-11-23T12:58:46;99120.91;;;-2.15;91.27
73594;BME280;64760;53.404;23.498;2022-11-23T13:01:26;99109.25;;;-2.22;90.32
73594;BME280;64760;53.404;23.498;2022-11-23T13:10:01;99126.19;;;-2.36;91.52
73594;BME280;64760;53.404;23.498;2022-11-23T13:23:52;99100.97;;;-2.48;91.84
73594;BME280;64760;53.404;23.498;2022-11-23T13:26:23;99109.41;;;-2.45;91.86
73594;BME280;64760;53.404;23.498;2022-11-23T13:28:51;99130.03;;;-2.40;91.68
73594;BME280;64760;53.404;23.498;2022-11-23T13:31:24;99128.13;;;-2.59;91.92
73594;BME280;64760;53.404;23.498;2022-11-23T13:33:58;99111.41;;;-2.78;91.92
73594;BME280;64760;53.404;23.498;2022-11-23T13:38:58;99120.13;;;-2.78;92.62
73594;BME280;64760;53.404;23.498;2022-11-23T13:44:21;99132.16;;;-2.75;93.08
73594;BME280;64760;53.404;23.498;2022-11-23T13:49:52;99121.97;;;-2.69;92.94
73594;BME280;64760;53.404;23.498;2022-11-23T13:52:32;99103.34;;;-2.87;92.86
73594;BME280;64760;53.404;23.498;2022-11-23T13:57:38;99133.16;;;-2.88;93.30
73594;BME280;64760;53.404;23.498;2022-11-23T14:11:59;99146.50;;;-2.91;93.82
73594;BME280;64760;53.404;23.498;2022-11-23T14:14:55;99147.59;;;-2.93;93.92
73594;BME280;64760;53.404;23.498;2022-11-23T14:28:51;99162.38;;;-2.92;94.22
73594;BME280;64760;53.404;23.498;2022-11-23T14:37:01;99128.69;;;-2.97;93.80
73594;BME280;64760;53.404;23.498;2022-11-23T14:39:44;99150.59;;;-2.98;94.06
73594;BME280;64760;53.404;23.498;2022-11-23T14:42:16;99143.38;;;-3.05;94.86
73594;BME280;64760;53.404;23.498;2022-11-23T14:44:43;99150.84;;;-3.01;94.66
73594;BME280;64760;53.404;23.498;2022-11-23T14:47:10;99151.59;;;-2.99;94.83
73594;BME280;64760;53.404;23.498;2022-11-23T14:49:50;99150.41;;;-3.06;94.37
73594;BME280;64760;53.404;23.498;2022-11-23T14:52:21;99148.97;;;-3.10;94.38
73594;BME280;64760;53.404;23.498;2022-11-23T14:54:50;99124.97;;;-3.26;94.44
73594;BME280;64760;53.404;23.498;2022-11-23T14:57:18;99153.75;;;-3.04;94.47
73594;BME280;64760;53.404;23.498;2022-11-23T14:59:48;99151.91;;;-2.92;94.43
73594;BME280;64760;53.404;23.498;2022-11-23T15:07:53;99148.66;;;-3.16;94.25
73594;BME280;64760;53.404;23.498;2022-11-23T15:10:27;99176.25;;;-3.01;94.82
73594;BME280;64760;53.404;23.498;2022-11-23T15:12:55;99174.72;;;-3.04;94.55
73594;BME280;64760;53.404;23.498;2022-11-23T15:15:27;99169.38;;;-3.13;94.31
73594;BME280;64760;53.404;23.498;2022-11-23T15:17:57;99184.47;;;-3.06;94.36
73594;BME280;64760;53.404;23.498;2022-11-23T15:20:47;99168.31;;;-3.11;94.30
73594;BME280;64760;53.404;23.498;2022-11-23T15:23:22;99171.16;;;-3.14;94.48
73594;BME280;64760;53.404;23.498;2022-11-23T15:25:53;99163.06;;;-3.11;94.71
73594;BME280;64760;53.404;23.498;2022-11-23T15:28:25;99169.41;;;-3.24;95.22